Time;durP1;ratioP1;P1;durP2;ratioP2;P2;SDS_P1;SDS_P2;PMS_P1;PMS_P2;Temp;Humidity;BMP_temperature;BMP_pressure;BME280_temperature;BME280_humidity;BME280_pressure;Samples;Min_cycle;Max_cycle;Signal;HPM_P1;HPM_P2
2022/08/06 00:00:47;;;;;;;7.10;2.40;;;;;;;;;;4994981;28;20045;-45
2022/08/06 00:03:14;;;;;;;6.28;2.10;;;;;;;;;;4993201;28;20137;-44
2022/08/06 00:05:40;;;;;;;6.30;2.20;;;;;;;;;;5001991;28;20041;-46
2022/08/06 00:08:07;;;;;;;6.35;2.30;;;;;;;;;;4987135;28;20042;-45
2022/08/06 00:10:35;;;;;;;6.45;2.25;;;;;;;;;;4996602;28;20038;-45
2022/08/06 00:13:02;;;;;;;6.22;1.73;;;;;;;;;;5002693;28;20148;-45
2022/08/06 00:15:28;;;;;;;6.65;2.30;;;;;;;;;;4992614;28;20052;-45
2022/08/06 00:17:55;;;;;;;6.60;2.60;;;;;;;;;;4988901;28;20077;-45
2022/08/06 00:20:22;;;;;;;8.35;2.92;;;;;;;;;;4998295;28;20045;-45
2022/08/06 00:22:48;;;;;;;6.45;2.20;;;;;;;;;;4995275;28;20041;-45
2022/08/06 00:25:15;;;;;;;8.23;2.40;;;;;;;;;;4987331;28;20037;-46
2022/08/06 00:27:43;;;;;;;7.00;2.50;;;;;;;;;;5005761;28;20076;-44
2022/08/06 00:30:10;;;;;;;9.10;3.23;;;;;;;;;;4986223;28;20132;-48
2022/08/06 00:32:36;;;;;;;6.50;2.40;;;;;;;;;;4979723;28;20677;-45
2022/08/06 00:35:03;;;;;;;7.20;2.75;;;;;;;;;;5003031;28;20042;-45
2022/08/06 00:37:31;;;;;;;7.90;2.45;;;;;;;;;;4979822;28;20046;-45
2022/08/06 00:39:58;;;;;;;7.85;2.47;;;;;;;;;;4993418;28;20049;-46
2022/08/06 00:42:25;;;;;;;7.30;2.53;;;;;;;;;;4969911;28;20076;-46
2022/08/06 00:44:53;;;;;;;7.03;2.90;;;;;;;;;;4973622;28;20038;-47
2022/08/06 00:47:20;;;;;;;8.98;2.50;;;;;;;;;;4995600;28;20048;-47
2022/08/06 00:49:47;;;;;;;6.65;2.40;;;;;;;;;;4997008;28;20046;-48
2022/08/06 00:52:13;;;;;;;7.53;2.72;;;;;;;;;;4992742;28;20054;-47
2022/08/06 00:54:40;;;;;;;7.63;2.53;;;;;;;;;;4967107;28;20123;-47
2022/08/06 00:57:06;;;;;;;5.97;2.28;;;;;;;;;;4995333;28;20038;-44
2022/08/06 00:59:33;;;;;;;7.07;2.47;;;;;;;;;;4987120;28;20030;-47
2022/08/06 01:02:01;;;;;;;9.68;2.60;;;;;;;;;;4993703;28;20039;-44
2022/08/06 01:04:27;;;;;;;6.10;2.60;;;;;;;;;;4985719;28;20593;-47
2022/08/06 01:06:54;;;;;;;6.07;2.10;;;;;;;;;;4998909;28;20105;-44
2022/08/06 01:09:20;;;;;;;8.00;3.28;;;;;;;;;;4986521;28;20045;-47
2022/08/06 01:11:47;;;;;;;7.65;2.55;;;;;;;;;;4981662;28;20042;-47
2022/08/06 01:14:13;;;;;;;7.63;2.85;;;;;;;;;;4975214;28;20042;-49
2022/08/06 01:16:45;;;;;;;7.15;2.67;;;;;;;;;;4990844;28;20050;-46
2022/08/06 01:19:28;;;;;;;10.07;3.77;;;;;;;;;;4992287;28;20050;-47
2022/08/06 01:22:03;;;;;;;7.70;2.72;;;;;;;;;;4987359;28;20442;-45
2022/08/06 01:24:54;;;;;;;7.47;2.50;;;;;;;;;;4988605;28;20042;-47
2022/08/06 01:27:34;;;;;;;7.50;2.30;;;;;;;;;;4980689;28;20402;-44
2022/08/06 01:30:05;;;;;;;8.93;2.83;;;;;;;;;;4983376;28;20049;-47
2022/08/06 01:32:33;;;;;;;7.83;2.63;;;;;;;;;;4981000;28;20631;-45
2022/08/06 01:35:00;;;;;;;7.30;2.65;;;;;;;;;;4998856;28;20046;-44
2022/08/06 01:37:30;;;;;;;7.15;2.30;;;;;;;;;;4982879;28;20033;-47
2022/08/06 01:39:59;;;;;;;8.77;2.67;;;;;;;;;;4995436;28;20038;-48
2022/08/06 01:42:26;;;;;;;7.35;2.78;;;;;;;;;;4991675;28;20038;-45
2022/08/06 01:44:55;;;;;;;7.63;2.57;;;;;;;;;;5002532;28;20034;-44
2022/08/06 01:47:24;;;;;;;8.40;3.33;;;;;;;;;;5001379;28;20550;-44
2022/08/06 01:49:52;;;;;;;9.93;2.60;;;;;;;;;;4997542;28;20043;-44
2022/08/06 01:52:20;;;;;;;8.65;2.85;;;;;;;;;;4971628;28;20874;-43
2022/08/06 01:54:48;;;;;;;8.93;2.72;;;;;;;;;;4992082;28;20073;-46
2022/08/06 01:57:18;;;;;;;7.83;3.00;;;;;;;;;;5007676;28;20045;-46
2022/08/06 01:59:47;;;;;;;7.85;3.08;;;;;;;;;;4982917;28;20065;-45
2022/08/06 02:02:17;;;;;;;11.60;2.90;;;;;;;;;;4999668;28;20356;-50
2022/08/06 02:04:45;;;;;;;7.75;3.22;;;;;;;;;;4987090;28;20555;-46
2022/08/06 02:07:14;;;;;;;7.70;3.13;;;;;;;;;;5007211;28;20422;-46
2022/08/06 02:09:42;;;;;;;7.30;3.20;;;;;;;;;;5002003;28;20089;-46
2022/08/06 02:12:11;;;;;;;9.13;3.25;;;;;;;;;;4997015;28;20058;-47
2022/08/06 02:14:40;;;;;;;8.55;3.55;;;;;;;;;;4981642;28;20033;-45
2022/08/06 02:17:07;;;;;;;7.90;2.75;;;;;;;;;;5001532;28;20026;-45
2022/08/06 02:19:35;;;;;;;7.47;2.95;;;;;;;;;;5000253;28;20050;-44
2022/08/06 02:22:03;;;;;;;8.30;3.13;;;;;;;;;;4994846;28;20065;-47
2022/08/06 02:24:30;;;;;;;7.82;2.95;;;;;;;;;;4980290;28;20038;-45
2022/08/06 02:26:59;;;;;;;11.65;3.60;;;;;;;;;;4992351;28;20745;-44
2022/08/06 02:29:26;;;;;;;8.82;3.53;;;;;;;;;;4991040;28;20484;-46
2022/08/06 02:31:53;;;;;;;7.20;3.25;;;;;;;;;;5002614;28;20042;-44
2022/08/06 02:34:20;;;;;;;8.90;3.50;;;;;;;;;;4989143;28;20070;-46
2022/08/06 02:36:50;;;;;;;9.80;3.63;;;;;;;;;;4997009;28;20046;-48
2022/08/06 02:39:21;;;;;;;9.20;3.38;;;;;;;;;;4990338;28;20038;-46
2022/08/06 02:41:51;;;;;;;7.85;3.15;;;;;;;;;;4995554;28;20543;-46
2022/08/06 02:44:20;;;;;;;8.15;3.25;;;;;;;;;;4978861;28;20045;-47
2022/08/06 02:46:50;;;;;;;7.10;2.87;;;;;;;;;;4993732;28;20041;-45
2022/08/06 02:49:19;;;;;;;7.35;2.83;;;;;;;;;;5000079;28;20119;-46
2022/08/06 02:51:49;;;;;;;8.45;2.97;;;;;;;;;;4993309;28;20050;-49
2022/08/06 02:54:20;;;;;;;8.63;3.28;;;;;;;;;;4982066;28;20863;-46
2022/08/06 02:56:49;;;;;;;7.70;3.30;;;;;;;;;;4991006;28;20042;-45
2022/08/06 02:59:22;;;;;;;11.20;3.33;;;;;;;;;;4985208;28;20042;-46
2022/08/06 03:01:51;;;;;;;7.80;3.15;;;;;;;;;;4973907;28;20065;-45
2022/08/06 03:04:19;;;;;;;9.82;4.20;;;;;;;;;;4951851;28;20709;-46
2022/08/06 03:06:47;;;;;;;10.27;3.58;;;;;;;;;;4997303;28;20037;-44
2022/08/06 03:09:15;;;;;;;8.13;3.28;;;;;;;;;;5000063;28;20050;-45
2022/08/06 03:11:45;;;;;;;11.87;3.87;;;;;;;;;;4999323;28;20100;-48
2022/08/06 03:14:13;;;;;;;10.32;3.63;;;;;;;;;;5004724;28;20053;-47
2022/08/06 03:16:41;;;;;;;8.90;3.70;;;;;;;;;;4985872;28;20120;-46
2022/08/06 03:19:09;;;;;;;9.45;3.42;;;;;;;;;;5005468;28;20049;-45
2022/08/06 03:21:36;;;;;;;8.98;3.72;;;;;;;;;;4991223;28;20038;-46
2022/08/06 03:24:03;;;;;;;8.93;3.67;;;;;;;;;;4967989;28;20045;-45
2022/08/06 03:26:30;;;;;;;8.35;3.80;;;;;;;;;;4988533;28;20077;-45
2022/08/06 03:28:59;;;;;;;10.32;3.97;;;;;;;;;;5003009;28;20033;-45
2022/08/06 03:31:26;;;;;;;9.80;3.72;;;;;;;;;;4983210;28;20030;-46
2022/08/06 03:33:53;;;;;;;9.60;4.05;;;;;;;;;;4991225;28;20145;-45
2022/08/06 03:36:20;;;;;;;9.13;3.90;;;;;;;;;;4958046;28;20081;-45
2022/08/06 03:38:48;;;;;;;10.95;4.32;;;;;;;;;;4996933;28;20042;-46
2022/08/06 03:41:15;;;;;;;9.70;4.22;;;;;;;;;;5001471;28;20049;-45
2022/08/06 03:43:42;;;;;;;10.82;4.20;;;;;;;;;;4984251;28;20037;-45
2022/08/06 03:46:10;;;;;;;9.15;3.60;;;;;;;;;;4977870;28;20105;-46
2022/08/06 03:48:39;;;;;;;9.20;4.40;;;;;;;;;;4991923;28;20501;-46
2022/08/06 03:51:13;;;;;;;11.18;4.20;;;;;;;;;;4978442;28;20041;-48
2022/08/06 03:53:41;;;;;;;9.63;4.10;;;;;;;;;;5003826;28;20064;-45
2022/08/06 03:56:08;;;;;;;8.45;3.72;;;;;;;;;;4936289;28;20030;-46
2022/08/06 03:58:37;;;;;;;9.20;4.03;;;;;;;;;;4987435;28;20042;-44
2022/08/06 04:01:06;;;;;;;10.80;4.03;;;;;;;;;;4999413;28;20121;-47
2022/08/06 04:03:35;;;;;;;10.30;4.70;;;;;;;;;;4989793;28;20052;-44
2022/08/06 04:06:03;;;;;;;9.70;4.03;;;;;;;;;;5003725;28;20042;-46
2022/08/06 04:08:30;;;;;;;9.48;4.18;;;;;;;;;;4989723;28;20042;-45
2022/08/06 04:10:57;;;;;;;12.07;4.10;;;;;;;;;;4970397;28;20994;-44
2022/08/06 04:13:24;;;;;;;10.83;4.20;;;;;;;;;;5002922;28;20096;-44
2022/08/06 04:15:51;;;;;;;11.13;4.05;;;;;;;;;;4985375;28;20058;-44
2022/08/06 04:18:19;;;;;;;9.95;4.28;;;;;;;;;;4989723;28;20064;-45
2022/08/06 04:20:48;;;;;;;9.63;4.15;;;;;;;;;;4988836;28;20042;-45
2022/08/06 04:23:15;;;;;;;11.07;4.97;;;;;;;;;;4974461;28;20072;-45
2022/08/06 04:25:42;;;;;;;10.20;4.17;;;;;;;;;;4999664;28;20069;-47
2022/08/06 04:28:10;;;;;;;10.82;4.20;;;;;;;;;;4988675;28;21847;-47
2022/08/06 04:30:37;;;;;;;9.77;4.25;;;;;;;;;;4996666;28;20038;-45
2022/08/06 04:33:04;;;;;;;11.57;4.57;;;;;;;;;;4993296;28;20100;-45
2022/08/06 04:35:31;;;;;;;9.00;4.22;;;;;;;;;;4976497;28;20034;-46
2022/08/06 04:38:00;;;;;;;11.50;4.43;;;;;;;;;;4978941;28;20042;-44
2022/08/06 04:40:27;;;;;;;10.63;4.60;;;;;;;;;;4981042;28;20034;-45
2022/08/06 04:42:54;;;;;;;10.43;4.38;;;;;;;;;;4981881;28;20105;-46
2022/08/06 04:45:21;;;;;;;8.80;4.00;;;;;;;;;;4993171;28;20060;-47
2022/08/06 04:47:48;;;;;;;11.40;4.45;;;;;;;;;;4997226;28;20043;-46
2022/08/06 04:50:15;;;;;;;11.10;4.07;;;;;;;;;;4983081;28;20041;-45
2022/08/06 04:52:41;;;;;;;10.38;4.60;;;;;;;;;;4994680;28;20042;-45
2022/08/06 04:55:09;;;;;;;14.13;4.90;;;;;;;;;;4998421;28;20081;-48
2022/08/06 04:57:36;;;;;;;13.57;4.93;;;;;;;;;;4979631;28;20050;-45
2022/08/06 05:00:03;;;;;;;11.10;4.88;;;;;;;;;;5003533;28;20042;-45
2022/08/06 05:02:29;;;;;;;13.53;5.30;;;;;;;;;;4978776;28;20506;-46
2022/08/06 05:04:57;;;;;;;10.10;4.07;;;;;;;;;;4997420;28;20045;-46
2022/08/06 05:07:27;;;;;;;10.40;4.20;;;;;;;;;;4986165;28;20046;-45
2022/08/06 05:09:54;;;;;;;10.52;4.57;;;;;;;;;;4993508;28;20064;-47
2022/08/06 05:12:26;;;;;;;10.63;4.60;;;;;;;;;;4995882;28;20511;-45
2022/08/06 05:14:54;;;;;;;12.77;4.70;;;;;;;;;;4989572;28;20034;-45
2022/08/06 05:17:21;;;;;;;14.18;5.13;;;;;;;;;;4976915;28;20377;-44
2022/08/06 05:19:52;;;;;;;12.60;5.00;;;;;;;;;;4998172;28;20046;-45
2022/08/06 05:22:19;;;;;;;10.02;4.90;;;;;;;;;;4992757;28;20050;-49
2022/08/06 05:24:47;;;;;;;13.02;5.15;;;;;;;;;;4968583;28;20049;-46
2022/08/06 05:27:14;;;;;;;13.17;5.67;;;;;;;;;;4987801;28;20038;-45
2022/08/06 05:29:42;;;;;;;12.10;4.80;;;;;;;;;;4986809;28;20034;-45
2022/08/06 05:32:08;;;;;;;10.75;4.60;;;;;;;;;;4993234;28;20799;-46
2022/08/06 05:34:35;;;;;;;11.95;4.88;;;;;;;;;;4981393;28;20101;-46
2022/08/06 05:37:01;;;;;;;12.65;5.47;;;;;;;;;;4998109;28;20041;-49
2022/08/06 05:39:28;;;;;;;13.60;5.10;;;;;;;;;;4968934;28;20134;-46
2022/08/06 05:41:54;;;;;;;13.88;5.88;;;;;;;;;;4997496;28;20050;-49
2022/08/06 05:44:22;;;;;;;11.93;5.35;;;;;;;;;;4997305;28;20053;-46
2022/08/06 05:46:52;;;;;;;11.93;5.18;;;;;;;;;;4991540;28;20041;-45
2022/08/06 05:49:20;;;;;;;12.80;5.65;;;;;;;;;;4984703;28;20042;-48
2022/08/06 05:51:50;;;;;;;13.53;5.27;;;;;;;;;;4991309;28;20054;-48
2022/08/06 05:54:19;;;;;;;12.20;5.65;;;;;;;;;;4981673;28;20046;-49
2022/08/06 05:56:47;;;;;;;15.38;5.53;;;;;;;;;;4988750;28;20047;-47
2022/08/06 05:59:17;;;;;;;13.50;5.72;;;;;;;;;;4991405;28;20538;-49
2022/08/06 06:01:44;;;;;;;13.63;6.28;;;;;;;;;;4990187;28;20417;-49
2022/08/06 06:04:12;;;;;;;11.57;5.80;;;;;;;;;;4991151;28;20379;-47
2022/08/06 06:06:39;;;;;;;12.68;6.40;;;;;;;;;;4994001;28;20038;-48
2022/08/06 06:09:08;;;;;;;24.13;6.55;;;;;;;;;;4990153;28;20092;-47
2022/08/06 06:11:35;;;;;;;11.98;6.25;;;;;;;;;;4997727;28;20049;-48
2022/08/06 06:14:02;;;;;;;14.65;6.13;;;;;;;;;;4978777;28;20038;-50
2022/08/06 06:16:30;;;;;;;11.27;5.57;;;;;;;;;;4994163;28;20434;-49
2022/08/06 06:19:02;;;;;;;13.90;5.43;;;;;;;;;;4978432;28;20038;-47
2022/08/06 06:21:35;;;;;;;14.10;5.82;;;;;;;;;;4986268;28;20423;-47
2022/08/06 06:24:09;;;;;;;13.57;5.78;;;;;;;;;;4994747;28;20074;-47
2022/08/06 06:26:40;;;;;;;11.27;6.03;;;;;;;;;;4996588;28;20318;-46
2022/08/06 06:29:09;;;;;;;13.87;6.10;;;;;;;;;;5002285;28;20081;-46
2022/08/06 06:31:38;;;;;;;15.55;6.30;;;;;;;;;;4989887;28;20069;-46
2022/08/06 06:34:08;;;;;;;12.57;6.40;;;;;;;;;;5000390;28;20045;-48
2022/08/06 06:36:38;;;;;;;16.20;6.22;;;;;;;;;;4994075;28;20093;-46
2022/08/06 06:39:09;;;;;;;14.15;6.38;;;;;;;;;;4971791;28;20038;-46
2022/08/06 06:41:38;;;;;;;14.23;5.93;;;;;;;;;;4988154;28;20062;-44
2022/08/06 06:44:08;;;;;;;14.90;6.35;;;;;;;;;;4998489;28;20229;-46
2022/08/06 06:46:37;;;;;;;12.90;6.28;;;;;;;;;;4981905;28;20045;-46
2022/08/06 06:49:07;;;;;;;12.32;6.57;;;;;;;;;;4996735;28;20076;-47
2022/08/06 06:51:35;;;;;;;14.70;6.50;;;;;;;;;;4990002;28;20050;-45
2022/08/06 06:54:05;;;;;;;12.43;6.90;;;;;;;;;;4993960;28;20038;-44
2022/08/06 06:56:32;;;;;;;13.52;6.35;;;;;;;;;;4985802;28;20053;-49
2022/08/06 06:59:00;;;;;;;13.77;6.68;;;;;;;;;;4999870;28;20050;-48
2022/08/06 07:01:30;;;;;;;12.45;6.20;;;;;;;;;;4993111;28;20477;-46
2022/08/06 07:03:57;;;;;;;13.88;5.93;;;;;;;;;;4978597;28;20057;-48
2022/08/06 07:06:25;;;;;;;12.93;6.27;;;;;;;;;;4992824;28;20108;-46
2022/08/06 07:08:52;;;;;;;12.15;5.82;;;;;;;;;;4995199;28;20042;-47
2022/08/06 07:11:25;;;;;;;19.25;7.00;;;;;;;;;;4983308;28;20046;-46
2022/08/06 07:13:52;;;;;;;14.82;6.07;;;;;;;;;;5001841;28;20069;-48
2022/08/06 07:16:20;;;;;;;25.60;6.65;;;;;;;;;;4980817;28;20038;-45
2022/08/06 07:18:48;;;;;;;15.10;5.80;;;;;;;;;;4999423;28;20554;-45
2022/08/06 07:21:15;;;;;;;19.17;6.40;;;;;;;;;;4990432;28;20053;-46
2022/08/06 07:23:42;;;;;;;14.32;7.13;;;;;;;;;;4999054;28;20065;-47
2022/08/06 07:26:09;;;;;;;14.93;6.72;;;;;;;;;;4981564;28;20042;-48
2022/08/06 07:28:38;;;;;;;14.68;6.35;;;;;;;;;;4991830;28;20034;-45
2022/08/06 07:31:06;;;;;;;13.93;6.80;;;;;;;;;;4997568;28;20057;-46
2022/08/06 07:33:34;;;;;;;13.70;6.60;;;;;;;;;;4994092;28;20040;-47
2022/08/06 07:36:01;;;;;;;13.70;6.60;;;;;;;;;;4992057;28;20077;-48
2022/08/06 07:38:29;;;;;;;13.63;6.05;;;;;;;;;;4980814;28;20053;-46
2022/08/06 07:40:58;;;;;;;12.23;6.00;;;;;;;;;;4988985;28;20042;-45
2022/08/06 07:43:26;;;;;;;12.30;5.53;;;;;;;;;;4997153;28;20041;-48
2022/08/06 07:45:55;;;;;;;15.07;6.25;;;;;;;;;;4997281;28;20065;-49
2022/08/06 07:48:24;;;;;;;15.93;5.38;;;;;;;;;;4986263;28;20042;-47
2022/08/06 07:50:51;;;;;;;17.45;5.65;;;;;;;;;;4999502;28;20053;-47
2022/08/06 07:53:19;;;;;;;12.15;5.25;;;;;;;;;;5023667;28;20046;-47
2022/08/06 07:55:47;;;;;;;11.37;5.10;;;;;;;;;;5016851;28;20049;-47
2022/08/06 07:58:14;;;;;;;10.68;4.90;;;;;;;;;;5006783;28;21178;-47
2022/08/06 08:00:41;;;;;;;12.07;5.13;;;;;;;;;;5019865;28;20033;-48
2022/08/06 08:08:38;;;;;;;13.90;4.70;;;;;;;;;;5017159;28;20421;-46
2022/08/06 08:11:05;;;;;;;9.65;4.38;;;;;;;;;;5014147;28;20128;-47
2022/08/06 08:13:32;;;;;;;11.32;5.18;;;;;;;;;;5020434;28;20045;-45
2022/08/06 08:15:59;;;;;;;11.93;4.40;;;;;;;;;;5018281;28;20041;-48
2022/08/06 08:18:31;;;;;;;10.35;3.80;;;;;;;;;;5024211;28;20045;-51
2022/08/06 08:20:58;;;;;;;9.57;4.47;;;;;;;;;;5015567;28;20038;-47
2022/08/06 08:23:25;;;;;;;9.43;4.03;;;;;;;;;;5024742;28;20037;-50
2022/08/06 08:25:52;;;;;;;9.38;3.42;;;;;;;;;;5010519;28;20030;-47
2022/08/06 08:28:19;;;;;;;8.35;3.40;;;;;;;;;;5022153;28;20037;-48
2022/08/06 08:30:46;;;;;;;10.20;3.17;;;;;;;;;;5011986;28;20123;-46
2022/08/06 08:33:12;;;;;;;12.03;3.63;;;;;;;;;;5026299;28;20076;-48
2022/08/06 08:35:40;;;;;;;9.50;3.00;;;;;;;;;;5017781;28;20049;-45
2022/08/06 08:38:07;;;;;;;8.45;3.05;;;;;;;;;;5019597;28;20561;-45
2022/08/06 08:40:34;;;;;;;8.75;2.63;;;;;;;;;;5016760;28;20041;-48
2022/08/06 08:43:02;;;;;;;9.85;3.08;;;;;;;;;;5018589;28;20068;-45
2022/08/06 08:45:29;;;;;;;9.13;3.50;;;;;;;;;;5013560;28;20038;-46
2022/08/06 08:47:58;;;;;;;10.27;3.67;;;;;;;;;;5025293;28;20037;-44
2022/08/06 08:50:27;;;;;;;7.40;2.83;;;;;;;;;;5006548;28;20307;-48
2022/08/06 08:52:57;;;;;;;8.32;2.75;;;;;;;;;;4978806;28;20133;-48
2022/08/06 08:55:25;;;;;;;9.02;2.78;;;;;;;;;;4977596;28;20053;-47
2022/08/06 08:57:55;;;;;;;7.33;2.70;;;;;;;;;;4991817;28;20053;-47
2022/08/06 09:00:22;;;;;;;6.63;2.50;;;;;;;;;;4985286;28;20759;-45
2022/08/06 09:02:49;;;;;;;7.78;2.45;;;;;;;;;;5000685;28;20046;-46
2022/08/06 09:05:15;;;;;;;8.18;3.08;;;;;;;;;;5002216;28;20053;-46
2022/08/06 09:07:42;;;;;;;8.02;2.67;;;;;;;;;;4977123;28;20430;-45
2022/08/06 09:10:10;;;;;;;8.73;2.13;;;;;;;;;;4986578;28;20034;-44
2022/08/06 09:12:37;;;;;;;6.35;1.77;;;;;;;;;;4993194;28;20050;-46
2022/08/06 09:15:04;;;;;;;10.13;1.90;;;;;;;;;;4992860;28;20517;-47
2022/08/06 09:17:31;;;;;;;9.48;2.13;;;;;;;;;;4995790;28;20378;-45
2022/08/06 09:19:57;;;;;;;6.18;1.60;;;;;;;;;;4990990;28;20097;-47
2022/08/06 09:22:24;;;;;;;6.13;1.70;;;;;;;;;;4980072;28;20183;-46
2022/08/06 09:24:51;;;;;;;8.00;1.70;;;;;;;;;;5004577;28;20475;-46
2022/08/06 09:27:19;;;;;;;6.30;1.73;;;;;;;;;;4981822;28;20041;-47
2022/08/06 09:29:50;;;;;;;6.32;2.08;;;;;;;;;;4996092;28;20046;-46
2022/08/06 09:32:31;;;;;;;5.03;1.70;;;;;;;;;;4964129;28;20428;-47
2022/08/06 09:34:58;;;;;;;7.37;1.83;;;;;;;;;;5004106;28;20046;-48
2022/08/06 09:37:27;;;;;;;5.65;1.50;;;;;;;;;;4970508;28;20038;-48
2022/08/06 09:39:54;;;;;;;5.68;1.85;;;;;;;;;;4957033;28;20037;-46
2022/08/06 09:42:35;;;;;;;6.32;1.50;;;;;;;;;;4993694;28;20041;-47
2022/08/06 09:45:12;;;;;;;6.72;1.80;;;;;;;;;;4995210;28;20384;-53
2022/08/06 09:47:39;;;;;;;14.17;2.00;;;;;;;;;;4983854;28;20551;-46
2022/08/06 09:50:06;;;;;;;7.13;1.65;;;;;;;;;;4990786;28;20052;-49
2022/08/06 09:52:32;;;;;;;5.72;1.88;;;;;;;;;;4289083;28;10000659;-48
2022/08/06 09:54:59;;;;;;;5.10;1.70;;;;;;;;;;4981350;28;20041;-47
2022/08/06 09:57:27;;;;;;;5.10;1.73;;;;;;;;;;4983954;28;20038;-48
2022/08/06 09:59:54;;;;;;;5.53;1.67;;;;;;;;;;4993386;28;20046;-45
2022/08/06 10:02:22;;;;;;;9.02;1.80;;;;;;;;;;4983193;28;20042;-47
2022/08/06 10:04:49;;;;;;;7.93;1.83;;;;;;;;;;4992821;28;20120;-47
2022/08/06 10:07:16;;;;;;;4.90;1.70;;;;;;;;;;4996338;28;20038;-48
2022/08/06 10:09:53;;;;;;;6.28;1.70;;;;;;;;;;4981363;28;20560;-50
2022/08/06 10:12:20;;;;;;;6.93;1.50;;;;;;;;;;4964921;28;20531;-48
2022/08/06 10:14:46;;;;;;;4.68;1.77;;;;;;;;;;4291340;28;10001009;-47
2022/08/06 10:17:14;;;;;;;7.03;1.80;;;;;;;;;;4986618;28;20034;-46
2022/08/06 10:19:43;;;;;;;10.02;2.50;;;;;;;;;;4991691;28;20034;-49
2022/08/06 10:22:10;;;;;;;6.22;1.85;;;;;;;;;;4993915;28;20042;-47
2022/08/06 10:24:37;;;;;;;4.93;1.43;;;;;;;;;;5003577;28;20050;-49
2022/08/06 10:27:06;;;;;;;5.75;1.77;;;;;;;;;;4983712;28;20061;-49
2022/08/06 10:29:33;;;;;;;5.47;1.60;;;;;;;;;;4978744;28;20614;-47
2022/08/06 10:31:59;;;;;;;7.55;1.70;;;;;;;;;;4996159;28;20042;-48
2022/08/06 10:34:28;;;;;;;5.00;1.65;;;;;;;;;;4991420;28;20046;-47
2022/08/06 10:36:58;;;;;;;7.80;1.80;;;;;;;;;;4992599;28;23977;-50
2022/08/06 10:39:27;;;;;;;6.90;1.67;;;;;;;;;;4949624;28;20405;-48
2022/08/06 10:41:55;;;;;;;5.28;1.63;;;;;;;;;;4965707;28;20069;-51
2022/08/06 10:44:25;;;;;;;6.18;2.10;;;;;;;;;;4965781;28;20148;-47
2022/08/06 10:46:52;;;;;;;5.70;1.85;;;;;;;;;;4972532;28;20050;-47
2022/08/06 10:49:20;;;;;;;5.47;1.60;;;;;;;;;;4983118;28;20040;-47
2022/08/06 10:51:46;;;;;;;6.53;1.92;;;;;;;;;;4999005;28;20093;-51
2022/08/06 10:54:15;;;;;;;5.70;1.70;;;;;;;;;;4987334;28;20032;-48
2022/08/06 10:56:42;;;;;;;6.72;1.83;;;;;;;;;;4985627;28;20047;-46
2022/08/06 10:59:08;;;;;;;6.38;2.05;;;;;;;;;;4985806;28;20034;-47
2022/08/06 11:01:37;;;;;;;6.30;1.90;;;;;;;;;;4990025;28;20066;-47
2022/08/06 11:04:24;;;;;;;7.38;1.85;;;;;;;;;;4987610;28;20049;-47
2022/08/06 11:07:06;;;;;;;6.50;1.80;;;;;;;;;;4981854;28;20066;-47
2022/08/06 11:09:52;;;;;;;8.45;1.90;;;;;;;;;;4949119;28;20046;-48
2022/08/06 11:12:29;;;;;;;4.55;1.63;;;;;;;;;;4981098;28;20053;-48
2022/08/06 11:14:56;;;;;;;6.87;1.67;;;;;;;;;;4985488;28;20050;-47
2022/08/06 11:17:23;;;;;;;5.50;1.67;;;;;;;;;;4984026;28;20044;-47
2022/08/06 11:19:50;;;;;;;5.53;1.50;;;;;;;;;;4973522;28;20034;-47
2022/08/06 11:22:33;;;;;;;6.72;1.73;;;;;;;;;;4989444;28;20042;-49
2022/08/06 11:25:02;;;;;;;5.63;1.25;;;;;;;;;;4993071;28;20049;-47
2022/08/06 11:27:47;;;;;;;4.63;1.47;;;;;;;;;;4984318;28;20065;-48
2022/08/06 11:30:14;;;;;;;7.88;2.17;;;;;;;;;;4986999;28;20034;-48
2022/08/06 11:32:44;;;;;;;5.68;1.75;;;;;;;;;;4991111;28;20068;-47
2022/08/06 11:35:41;;;;;;;5.68;2.03;;;;;;;;;;4980842;28;20050;-47
2022/08/06 11:38:08;;;;;;;6.40;1.77;;;;;;;;;;4911040;29;20043;-47
2022/08/06 11:40:54;;;;;;;5.93;1.70;;;;;;;;;;4961253;28;20053;-46
2022/08/06 11:43:35;;;;;;;5.47;1.48;;;;;;;;;;4992411;28;20030;-50
2022/08/06 11:46:22;;;;;;;7.78;2.65;;;;;;;;;;4992533;28;20053;-47
2022/08/06 11:49:06;;;;;;;6.40;1.63;;;;;;;;;;4993434;28;20440;-48
2022/08/06 11:51:40;;;;;;;6.28;1.67;;;;;;;;;;4987462;28;20058;-47
2022/08/06 11:54:10;;;;;;;6.07;1.60;;;;;;;;;;5000330;28;20041;-49
2022/08/06 11:56:37;;;;;;;7.38;1.60;;;;;;;;;;4977317;28;20052;-50
2022/08/06 11:59:13;;;;;;;5.68;1.95;;;;;;;;;;4988696;28;20041;-47
2022/08/06 12:01:46;;;;;;;4.75;1.33;;;;;;;;;;4992370;28;20068;-49
2022/08/06 12:04:28;;;;;;;5.53;1.73;;;;;;;;;;4985736;28;20087;-49
2022/08/06 12:07:09;;;;;;;6.17;1.53;;;;;;;;;;4989723;28;20049;-48
2022/08/06 12:09:37;;;;;;;6.07;2.10;;;;;;;;;;4986707;28;20042;-47
2022/08/06 12:12:18;;;;;;;5.30;1.60;;;;;;;;;;5001444;28;20104;-46
2022/08/06 12:14:44;;;;;;;5.00;1.60;;;;;;;;;;4963258;28;20057;-48
2022/08/06 12:17:14;;;;;;;5.07;1.80;;;;;;;;;;4647350;28;10000605;-49
2022/08/06 12:19:44;;;;;;;7.28;2.20;;;;;;;;;;4996941;28;20042;-53
2022/08/06 12:22:12;;;;;;;6.80;2.00;;;;;;;;;;4991503;28;20038;-46
2022/08/06 12:24:39;;;;;;;6.20;1.88;;;;;;;;;;4984829;28;20038;-50
2022/08/06 12:27:06;;;;;;;5.03;1.47;;;;;;;;;;4989795;28;20916;-46
2022/08/06 12:29:35;;;;;;;7.85;2.13;;;;;;;;;;4998674;28;20535;-49
2022/08/06 12:32:02;;;;;;;5.35;2.53;;;;;;;;;;4991182;28;20558;-47
2022/08/06 12:34:30;;;;;;;6.22;1.65;;;;;;;;;;4982437;28;20042;-46
2022/08/06 12:36:58;;;;;;;8.27;2.00;;;;;;;;;;4988952;28;20068;-46
2022/08/06 12:40:23;;;;;;;7.47;2.57;;;;;;;;;;4984316;28;20083;-47
2022/08/06 12:42:22;;;;;;;7.65;2.00;;;;;;;;;;4982299;28;20078;-46
2022/08/06 12:44:49;;;;;;;7.30;1.90;;;;;;;;;;4986066;28;20041;-51
2022/08/06 12:47:16;;;;;;;4.97;1.70;;;;;;;;;;4994294;28;20041;-50
2022/08/06 12:49:44;;;;;;;5.03;2.08;;;;;;;;;;4980525;28;20049;-47
2022/08/06 12:52:13;;;;;;;5.17;2.13;;;;;;;;;;4999606;28;20080;-48
2022/08/06 12:54:40;;;;;;;7.75;2.08;;;;;;;;;;4992033;28;20025;-48
2022/08/06 12:57:06;;;;;;;6.32;2.20;;;;;;;;;;4995849;28;20046;-49
2022/08/06 12:59:33;;;;;;;8.98;2.13;;;;;;;;;;4997473;28;20038;-47
2022/08/06 13:01:59;;;;;;;5.55;2.50;;;;;;;;;;4989484;28;20053;-51
2022/08/06 13:04:27;;;;;;;6.97;2.47;;;;;;;;;;5005880;28;20046;-52
2022/08/06 13:06:55;;;;;;;7.75;2.20;;;;;;;;;;4994912;28;20041;-47
2022/08/06 13:09:28;;;;;;;7.47;2.22;;;;;;;;;;4993748;28;20045;-48
2022/08/06 13:11:54;;;;;;;6.45;2.40;;;;;;;;;;5004777;28;20042;-49
2022/08/06 13:14:21;;;;;;;9.27;3.33;;;;;;;;;;4987014;28;20037;-50
2022/08/06 13:16:48;;;;;;;7.50;2.57;;;;;;;;;;5000179;28;20152;-50
2022/08/06 13:19:16;;;;;;;5.95;2.65;;;;;;;;;;4993404;28;20030;-52
2022/08/06 13:21:46;;;;;;;6.72;2.47;;;;;;;;;;5001158;28;20037;-53
2022/08/06 13:24:25;;;;;;;6.15;2.58;;;;;;;;;;4990658;28;20081;-49
2022/08/06 13:26:53;;;;;;;5.38;2.20;;;;;;;;;;4992445;28;20513;-47
2022/08/06 13:29:22;;;;;;;7.57;2.60;;;;;;;;;;5008148;28;20033;-49
2022/08/06 13:31:58;;;;;;;7.28;2.35;;;;;;;;;;4987372;28;20050;-46
2022/08/06 13:34:26;;;;;;;6.65;2.58;;;;;;;;;;4991496;28;20038;-49
2022/08/06 13:36:57;;;;;;;7.18;2.60;;;;;;;;;;4993612;28;20057;-48
2022/08/06 13:39:27;;;;;;;7.22;2.40;;;;;;;;;;5001031;28;20038;-51
2022/08/06 13:42:00;;;;;;;7.03;2.53;;;;;;;;;;4992508;28;20037;-51
2022/08/06 13:44:27;;;;;;;8.00;2.42;;;;;;;;;;4988940;28;20058;-52
2022/08/06 13:46:54;;;;;;;7.03;2.28;;;;;;;;;;4970830;28;20045;-48
2022/08/06 13:49:20;;;;;;;5.90;2.20;;;;;;;;;;5004751;28;20099;-48
2022/08/06 13:51:49;;;;;;;7.50;2.78;;;;;;;;;;4993312;28;20062;-49
2022/08/06 13:54:16;;;;;;;5.60;2.47;;;;;;;;;;5003266;28;20069;-48
2022/08/06 13:56:44;;;;;;;6.57;2.45;;;;;;;;;;4990406;28;20414;-49
2022/08/06 13:59:10;;;;;;;5.65;2.38;;;;;;;;;;4998947;28;20033;-48
2022/08/06 14:01:38;;;;;;;5.55;2.40;;;;;;;;;;5000518;28;20044;-51
2022/08/06 14:04:05;;;;;;;6.40;2.92;;;;;;;;;;5004286;28;20097;-49
2022/08/06 14:06:32;;;;;;;6.63;2.47;;;;;;;;;;4993147;28;20583;-50
2022/08/06 14:08:58;;;;;;;6.75;2.42;;;;;;;;;;5000814;28;20042;-51
2022/08/06 14:11:25;;;;;;;7.28;2.38;;;;;;;;;;4992334;28;20456;-47
2022/08/06 14:13:53;;;;;;;8.23;2.90;;;;;;;;;;5000621;28;20037;-48
2022/08/06 14:16:19;;;;;;;6.90;2.70;;;;;;;;;;4997104;28;20042;-47
2022/08/06 14:18:52;;;;;;;5.40;2.37;;;;;;;;;;5002657;28;20046;-56
2022/08/06 14:21:18;;;;;;;7.07;2.05;;;;;;;;;;5000114;28;20048;-52
2022/08/06 14:23:45;;;;;;;6.43;2.28;;;;;;;;;;4967535;28;20046;-49
2022/08/06 14:26:12;;;;;;;5.47;2.13;;;;;;;;;;5007999;28;20044;-46
2022/08/06 14:28:39;;;;;;;7.22;2.50;;;;;;;;;;4975663;28;20912;-49
2022/08/06 14:31:08;;;;;;;5.70;1.90;;;;;;;;;;5005897;28;24094;-48
2022/08/06 14:33:35;;;;;;;8.60;2.22;;;;;;;;;;4972036;28;20038;-48
2022/08/06 14:36:01;;;;;;;6.07;2.13;;;;;;;;;;5007412;28;20053;-51
2022/08/06 14:38:28;;;;;;;6.13;2.22;;;;;;;;;;5000682;28;20084;-48
2022/08/06 14:46:26;;;;;;;5.95;2.47;;;;;;;;;;4997133;28;20268;-48
2022/08/06 14:48:58;;;;;;;6.13;2.05;;;;;;;;;;5009941;28;20095;-53
2022/08/06 14:51:25;;;;;;;4.80;1.77;;;;;;;;;;4976874;28;20042;-50
2022/08/06 14:53:52;;;;;;;7.22;2.30;;;;;;;;;;4992643;28;20050;-46
2022/08/06 14:56:18;;;;;;;6.33;2.20;;;;;;;;;;4996063;28;20069;-46
2022/08/06 14:58:44;;;;;;;5.78;2.25;;;;;;;;;;4995339;28;20088;-48